createdAt,value
2016-11-28T00:01:11.985Z,80.19
2016-11-28T00:02:25.881Z,80.19
2016-11-28T00:03:40.308Z,80.48
2016-11-28T00:04:54.113Z,80.1
2016-11-28T00:06:08.548Z,80
2016-11-28T00:07:22.484Z,79.72
2016-11-28T00:08:36.602Z,80.48
2016-11-28T00:09:50.848Z,80.48
2016-11-28T00:11:04.949Z,80.48
2016-11-28T00:12:19.981Z,80.19
2016-11-28T00:13:35.042Z,80.29
2016-11-28T00:14:49.400Z,80.19
2016-11-28T00:16:03.650Z,80.1
2016-11-28T00:17:17.764Z,80.1
2016-11-28T00:19:01.772Z,80.76
2016-11-28T00:20:16.170Z,80.95
2016-11-28T00:21:30.172Z,80.76
2016-11-28T00:22:44.492Z,80.57
2016-11-28T00:23:58.718Z,80.63
2016-11-28T00:25:13.394Z,80.63
2016-11-28T00:26:42.401Z,80.91
2016-11-28T00:27:56.329Z,81.1
2016-11-28T00:29:10.814Z,81.24
2016-11-28T00:30:25.473Z,81.29
2016-11-28T00:31:39.455Z,81.38
2016-11-28T00:32:54.040Z,81.29
2016-11-28T00:34:07.991Z,81.67
2016-11-28T00:35:22.365Z,81.57
2016-11-28T00:36:37.111Z,82.05
2016-11-28T00:37:51.275Z,81.86
2016-11-28T00:39:05.923Z,81.67
2016-11-28T00:40:20.108Z,81.95
2016-11-28T00:41:34.074Z,82.24
2016-11-28T00:42:48.331Z,81.86
2016-11-28T00:44:02.264Z,82.05
2016-11-28T00:45:16.633Z,81.86
2016-11-28T00:46:33.070Z,82.24
2016-11-28T00:47:47.754Z,82.14
2016-11-28T00:49:01.918Z,82.05
2016-11-28T00:50:16.005Z,82.14
2016-11-28T00:51:30.549Z,81.95
2016-11-28T00:52:44.694Z,81.67
2016-11-28T00:53:58.818Z,81.67
2016-11-28T00:55:13.693Z,81.67
2016-11-28T00:58:41.023Z,81.76
2016-11-28T00:59:54.962Z,81.76
2016-11-28T01:01:09.750Z,81.95
2016-11-28T01:02:23.946Z,81.57
2016-11-28T01:03:38.363Z,81.76
2016-11-28T01:04:52.424Z,81.86
2016-11-28T01:06:06.915Z,82.05
2016-11-28T01:07:21.425Z,81.67
2016-11-28T01:08:35.574Z,81.67
2016-11-28T01:09:49.586Z,81.67
2016-11-28T01:11:03.928Z,81.86
2016-11-28T01:12:19.673Z,81.95
2016-11-28T01:13:34.344Z,81.67
2016-11-28T01:14:49.511Z,81.57
2016-11-28T01:16:06.264Z,81.48
2016-11-28T01:17:25.615Z,81.1
2016-11-28T01:18:43.661Z,81.24
2016-11-28T01:19:59.589Z,81.2
2016-11-28T01:21:13.605Z,81.2
2016-11-28T01:22:27.600Z,81.1
2016-11-28T01:23:41.951Z,81.2
2016-11-28T01:24:56.147Z,80.82
2016-11-28T01:26:25.418Z,80.72
2016-11-28T01:27:39.314Z,80.06
2016-11-28T01:28:53.468Z,80.53
2016-11-28T01:30:07.524Z,80.44
2016-11-28T01:31:22.079Z,80.34
2016-11-28T01:32:37.320Z,80.38
2016-11-28T01:34:06.206Z,80.15
2016-11-28T01:35:20.111Z,80.34
2016-11-28T01:36:49.040Z,79.87
2016-11-28T01:38:03.529Z,80.15
2016-11-28T01:39:17.973Z,80.25
2016-11-28T01:40:31.812Z,79.68
2016-11-28T01:41:45.929Z,79.77
2016-11-28T01:43:00.079Z,79.68
2016-11-28T01:44:14.382Z,79.96
2016-11-28T01:45:29.034Z,79.68
2016-11-28T01:46:43.178Z,79.49
2016-11-28T01:47:57.114Z,79.87
2016-11-28T01:50:41.415Z,80.15
2016-11-28T01:51:55.723Z,80.53
2016-11-28T01:53:09.855Z,80.06
2016-11-28T01:54:23.815Z,80.06
2016-11-28T01:55:37.797Z,79.49
2016-11-28T01:56:52.018Z,79.58
2016-11-28T01:58:07.166Z,79.39
2016-11-28T01:59:21.638Z,79.87
2016-11-28T02:00:35.574Z,80.44
2016-11-28T02:01:49.506Z,80.15
2016-11-28T02:03:04.433Z,80.34
2016-11-28T02:04:18.735Z,80.34
2016-11-28T02:05:35.272Z,80.06
2016-11-28T02:06:49.410Z,80.53
2016-11-28T02:08:18.220Z,80.63
2016-11-28T02:09:32.897Z,80.34
2016-11-28T02:10:47.804Z,80.34
2016-11-28T02:12:02.124Z,80.63
2016-11-28T02:13:15.930Z,80.44
2016-11-28T02:14:29.932Z,80.44
2016-11-28T02:15:44.663Z,80.15
2016-11-28T02:16:58.915Z,80.15
2016-11-28T02:18:12.687Z,80.34
2016-11-28T02:19:26.757Z,80.06
2016-11-28T02:20:40.912Z,80.25
2016-11-28T02:21:55.107Z,80.25
2016-11-28T02:23:08.862Z,80.25
2016-11-28T02:24:23.348Z,79.96
2016-11-28T02:25:37.453Z,80.53
2016-11-28T02:26:51.308Z,80.25
2016-11-28T02:28:05.720Z,80.44
2016-11-28T02:29:19.413Z,79.96
2016-11-28T02:30:33.453Z,80.25
2016-11-28T02:31:47.830Z,80.72
2016-11-28T02:33:02.193Z,80.34
2016-11-28T02:34:17.010Z,80.82
2016-11-28T02:35:31.199Z,80.63
2016-11-28T02:36:48.827Z,80.72
2016-11-28T02:38:22.465Z,80.63
2016-11-28T02:39:37.143Z,81.01
2016-11-28T02:40:51.515Z,81.01
2016-11-28T02:42:05.689Z,80.91
2016-11-28T02:43:19.754Z,81.2
2016-11-28T02:44:33.722Z,81.1
2016-11-28T02:45:48.422Z,81.01
2016-11-28T02:47:02.378Z,81.2
2016-11-28T02:48:16.415Z,81.48
2016-11-28T02:49:30.444Z,81.38
2016-11-28T02:50:44.843Z,81.2
2016-11-28T02:51:59.763Z,81.57
2016-11-28T02:53:13.722Z,81.48
2016-11-28T02:54:28.064Z,81.63
2016-11-28T02:55:42.097Z,81.48
2016-11-28T02:56:56.273Z,81.29
2016-11-28T02:58:11.065Z,81.38
2016-11-28T02:59:25.014Z,81.38
2016-11-28T03:00:39.440Z,81.63
2016-11-28T03:01:53.479Z,81.38
2016-11-28T03:03:07.912Z,81.57
2016-11-28T03:04:22.767Z,82.01
2016-11-28T03:05:36.542Z,81.44
2016-11-28T03:06:50.504Z,81.63
2016-11-28T03:08:04.359Z,81.53
2016-11-28T03:09:18.451Z,81.82
2016-11-28T03:10:32.922Z,81.63
2016-11-28T03:11:47.093Z,81.82
2016-11-28T03:13:01.171Z,81.63
2016-11-28T03:14:29.779Z,81.82
2016-11-28T03:15:44.044Z,82.01
2016-11-28T03:16:58.515Z,81.82
2016-11-28T03:18:12.339Z,81.63
2016-11-28T03:19:23.776Z,81.82
2016-11-28T03:20:35.160Z,81.63
2016-11-28T03:21:46.488Z,81.72
2016-11-28T03:23:00.596Z,81.63
2016-11-28T03:24:12.136Z,81.63
2016-11-28T03:25:23.586Z,81.63
2016-11-28T03:26:34.934Z,81.63
2016-11-28T03:27:46.283Z,81.63
2016-11-28T03:28:58.765Z,81.72
2016-11-28T03:30:10.471Z,81.63
2016-11-28T03:31:22.114Z,81.92
2016-11-28T03:32:33.619Z,81.92
2016-11-28T03:33:44.966Z,82.29
2016-11-28T03:34:56.647Z,82.29
2016-11-28T03:36:08.388Z,82.29
2016-11-28T03:37:19.804Z,82.2
2016-11-28T03:38:31.692Z,82.1
2016-11-28T03:39:43.106Z,82.01
2016-11-28T03:40:54.813Z,82.2
2016-11-28T03:42:06.569Z,82.1
2016-11-28T03:43:18.095Z,82.01
2016-11-28T03:44:30.035Z,82.01
2016-11-28T03:45:41.501Z,82.67
2016-11-28T03:46:53.002Z,82.29
2016-11-28T03:48:04.630Z,82.86
2016-11-28T03:50:42.072Z,82.29
2016-11-28T03:51:53.752Z,82.67
2016-11-28T03:53:05.212Z,82.29
2016-11-28T03:54:16.920Z,82.29
2016-11-28T03:55:28.207Z,82.01
2016-11-28T03:56:39.625Z,82.1
2016-11-28T03:57:50.858Z,82.2
2016-11-28T03:59:02.877Z,82.2
2016-11-28T04:00:14.166Z,82.48
2016-11-28T04:01:25.894Z,82.29
2016-11-28T04:02:37.342Z,82.39
2016-11-28T04:03:48.730Z,82.48
2016-11-28T04:05:00.735Z,82.29
2016-11-28T04:06:12.709Z,82.39
2016-11-28T04:07:24.018Z,82.1
2016-11-28T04:08:35.259Z,82.01
2016-11-28T04:09:46.862Z,82.01
2016-11-28T04:10:58.362Z,82.48
2016-11-28T04:12:09.783Z,82.1
2016-11-28T04:13:21.341Z,82.1
2016-11-28T04:14:32.734Z,82.01
2016-11-28T04:15:44.080Z,82.01
2016-11-28T04:16:56.048Z,82.01
2016-11-28T04:18:22.252Z,82.01
2016-11-28T04:19:33.649Z,81.53
2016-11-28T04:20:59.852Z,81.63
2016-11-28T04:22:12.008Z,81.72
2016-11-28T04:23:23.978Z,81.72
2016-11-28T04:24:35.308Z,81.82
2016-11-28T04:25:46.684Z,81.82
2016-11-28T04:26:58.106Z,81.63
2016-11-28T04:28:09.708Z,81.72
2016-11-28T04:29:20.996Z,81.72
2016-11-28T04:30:32.570Z,81.53
2016-11-28T04:31:44.467Z,81.53
2016-11-28T04:32:56.301Z,81.63
2016-11-28T04:34:07.854Z,81.63
2016-11-28T04:35:19.422Z,81.25
2016-11-28T04:36:31.730Z,81.72
2016-11-28T04:37:45.797Z,81.63
2016-11-28T04:38:57.773Z,81.53
2016-11-28T04:40:09.249Z,81.92
2016-11-28T04:41:21.031Z,81.92
2016-11-28T04:42:32.544Z,81.92
2016-11-28T04:43:44.329Z,82.01
2016-11-28T04:44:56.524Z,81.15
2016-11-28T04:46:08.318Z,81.34
2016-11-28T04:47:20.775Z,81.72
2016-11-28T04:48:32.018Z,82.01
2016-11-28T04:49:43.331Z,81.82
2016-11-28T04:50:55.011Z,81.72
2016-11-28T04:52:06.965Z,81.82
2016-11-28T04:53:18.916Z,81.72
2016-11-28T04:54:30.259Z,81.72
2016-11-28T04:55:41.489Z,81.53
2016-11-28T04:56:53.573Z,81.63
2016-11-28T05:00:30.453Z,82.01
2016-11-28T05:01:42.248Z,82.2
2016-11-28T05:02:54.317Z,82.2
2016-11-28T05:04:06.104Z,81.82
2016-11-28T05:05:17.412Z,81.63
2016-11-28T05:06:29.085Z,81.92
2016-11-28T05:07:40.990Z,81.72
2016-11-28T05:08:52.338Z,81.63
2016-11-28T05:10:03.882Z,81.72
2016-11-28T05:11:30.325Z,81.82
2016-11-28T05:12:41.513Z,83.14
2016-11-28T05:13:53.078Z,83.14
2016-11-28T05:15:04.493Z,83.24
2016-11-28T05:16:16.004Z,83.43
2016-11-28T05:17:27.588Z,83.05
2016-11-28T05:18:39.071Z,82.57
2016-11-28T05:19:50.902Z,82.01
2016-11-28T05:21:02.638Z,81.63
2016-11-28T05:22:14.669Z,82.39
2016-11-28T05:23:26.124Z,83.05
2016-11-28T05:24:37.877Z,82.1
2016-11-28T05:25:49.447Z,82.01
2016-11-28T05:27:01.234Z,81.63
2016-11-28T05:28:12.943Z,81.15
2016-11-28T05:29:24.653Z,81.72
2016-11-28T05:30:35.893Z,81.53
2016-11-28T05:31:47.509Z,81.15
2016-11-28T05:32:59.063Z,80.58
2016-11-28T05:34:11.709Z,81.44
2016-11-28T05:35:23.958Z,81.25
2016-11-28T05:36:37.292Z,80.4
2016-11-28T05:37:49.131Z,80.77
2016-11-28T05:39:01.421Z,80.96
2016-11-28T05:40:13.326Z,81.44
2016-11-28T05:41:24.719Z,81.72
2016-11-28T05:42:36.832Z,81.72
2016-11-28T05:43:48.647Z,81.82
2016-11-28T05:45:01.374Z,82.1
2016-11-28T05:46:13.271Z,82.2
2016-11-28T05:47:24.781Z,81.63
2016-11-28T05:48:36.331Z,82.2
2016-11-28T05:49:48.040Z,82.29
2016-11-28T05:50:59.522Z,82.29
2016-11-28T05:52:11.156Z,82.57
2016-11-28T05:53:25.002Z,82.2
2016-11-28T05:54:36.559Z,82.1
2016-11-28T05:55:48.043Z,82.29
2016-11-28T05:57:00.166Z,82.67
2016-11-28T05:58:12.078Z,82.67
2016-11-28T05:59:23.675Z,82.48
2016-11-28T06:00:35.152Z,82.57
2016-11-28T06:01:47.109Z,82.67
2016-11-28T06:02:58.898Z,82.39
2016-11-28T06:04:11.029Z,83.05
2016-11-28T06:05:22.413Z,83.14
2016-11-28T06:06:34.188Z,83.05
2016-11-28T06:07:46.015Z,83.14
2016-11-28T06:08:57.673Z,83.1
2016-11-28T06:10:09.411Z,83.1
2016-11-28T06:11:21.307Z,83.48
2016-11-28T06:12:32.739Z,83.29
2016-11-28T06:13:44.287Z,83.58
2016-11-28T06:14:55.657Z,83.29
2016-11-28T06:16:07.454Z,84.05
2016-11-28T06:17:18.654Z,83.86
2016-11-28T06:18:29.954Z,83.86
2016-11-28T06:19:41.201Z,84.33
2016-11-28T06:20:52.997Z,84.23
2016-11-28T06:22:04.606Z,84.33
2016-11-28T06:23:15.861Z,84.61
2016-11-28T06:24:27.648Z,84.81
2016-11-28T06:25:38.957Z,84.71
2016-11-28T06:26:50.844Z,85.09
2016-11-28T06:28:02.638Z,85.19
2016-11-28T06:29:14.182Z,84.61
2016-11-28T06:30:25.461Z,85.19
2016-11-28T06:31:36.711Z,85.38
2016-11-28T06:32:47.945Z,85
2016-11-28T06:33:59.549Z,85.57
2016-11-28T06:35:10.890Z,85.28
2016-11-28T06:36:23.022Z,85.28
2016-11-28T06:37:34.322Z,85.57
2016-11-28T06:38:45.556Z,85.57
2016-11-28T06:39:57.183Z,85.57
2016-11-28T06:41:08.727Z,85.66
2016-11-28T06:42:20.277Z,85.85
2016-11-28T06:43:31.718Z,86.41
2016-11-28T06:44:43.265Z,85.94
2016-11-28T06:45:54.727Z,86.13
2016-11-28T06:47:06.275Z,86.51
2016-11-28T06:48:17.690Z,86.7
2016-11-28T06:49:29.162Z,86.51
2016-11-28T06:50:40.891Z,86.32
2016-11-28T06:51:53.256Z,86.32
2016-11-28T06:53:04.560Z,86.6
2016-11-28T06:54:15.799Z,86.22
2016-11-28T06:55:27.104Z,86.41
2016-11-28T06:56:38.591Z,86.04
2016-11-28T06:57:50.725Z,85.75
2016-11-28T06:59:02.230Z,85.57
2016-11-28T07:00:13.760Z,85.85
2016-11-28T07:01:25.294Z,85.94
2016-11-28T07:02:36.872Z,85.66
2016-11-28T07:03:49.183Z,85.47
2016-11-28T07:05:00.755Z,86.13
2016-11-28T07:06:12.542Z,85.28
2016-11-28T07:07:26.336Z,85.47
2016-11-28T07:08:37.803Z,85.57
2016-11-28T07:09:50.133Z,85.57
2016-11-28T07:11:01.856Z,85.94
2016-11-28T07:12:13.297Z,85.28
2016-11-28T07:13:24.699Z,85.57
2016-11-28T07:14:36.002Z,85.75
2016-11-28T07:15:47.501Z,85.19
2016-11-28T07:16:59.085Z,85.38
2016-11-28T07:18:10.473Z,85.09
2016-11-28T07:19:22.244Z,85.09
2016-11-28T07:20:34.010Z,84.71
2016-11-28T07:21:45.836Z,84.42
2016-11-28T07:22:57.441Z,84.9
2016-11-28T07:24:09.613Z,84.52
2016-11-28T07:25:21.153Z,84.23
2016-11-28T07:26:32.591Z,84.81
2016-11-28T07:27:44.435Z,84.23
2016-11-28T07:28:56.077Z,84.33
2016-11-28T07:30:07.790Z,84.23
2016-11-28T07:31:19.876Z,84.23
2016-11-28T07:32:31.681Z,83.67
2016-11-28T07:33:43.537Z,83.58
2016-11-28T07:34:55.092Z,83.67
2016-11-28T07:36:06.935Z,83.67
2016-11-28T07:37:18.763Z,83.86
2016-11-28T07:38:30.224Z,82.82
2016-11-28T07:39:42.573Z,83.01
2016-11-28T07:40:54.237Z,83.29
2016-11-28T07:42:05.803Z,83.01
2016-11-28T07:43:17.334Z,83.2
2016-11-28T07:44:29.374Z,83.01
2016-11-28T07:45:41.048Z,82.82
2016-11-28T07:46:52.520Z,82.25
2016-11-28T07:48:04.173Z,82.25
2016-11-28T07:49:15.788Z,81.77
2016-11-28T07:50:27.380Z,81.96
2016-11-28T07:51:39.552Z,81.68
2016-11-28T07:52:51.280Z,81.96
2016-11-28T07:54:02.810Z,81.12
2016-11-28T07:55:13.998Z,81.4
2016-11-28T07:56:25.623Z,80.45
2016-11-28T07:57:38.163Z,80.55
2016-11-28T07:58:49.396Z,80.45
2016-11-28T08:00:01.212Z,80.07
2016-11-28T08:01:13.211Z,79.41
2016-11-28T08:02:24.906Z,79.41
2016-11-28T08:03:37.104Z,79.79
2016-11-28T08:04:48.753Z,79.6
2016-11-28T08:06:00.132Z,79.79
2016-11-28T08:07:12.020Z,79.5
2016-11-28T08:08:23.411Z,79.5
2016-11-28T08:09:35.314Z,79.6
2016-11-28T08:10:46.820Z,79.5
2016-11-28T08:11:58.108Z,79.41
2016-11-28T08:13:24.593Z,79.32
2016-11-28T08:14:36.582Z,78.85
2016-11-28T08:15:49.235Z,78.94
2016-11-28T08:17:00.937Z,78.94
2016-11-28T08:18:12.892Z,78.46
2016-11-28T08:19:24.493Z,78.46
2016-11-28T08:20:36.185Z,78.65
2016-11-28T08:21:50.887Z,78.65
2016-11-28T08:23:02.683Z,78.37
2016-11-28T08:24:14.386Z,78.18
2016-11-28T08:25:26.463Z,77.89
2016-11-28T08:26:38.323Z,77.51
2016-11-28T08:27:50.231Z,77.33
2016-11-28T08:29:01.962Z,77.61
2016-11-28T08:30:14.043Z,77.61
2016-11-28T08:31:25.728Z,77.42
2016-11-28T08:32:37.478Z,77.42
2016-11-28T08:33:49.242Z,76.67
2016-11-28T08:35:01.386Z,76.86
2016-11-28T08:36:13.286Z,76.76
2016-11-28T08:37:24.923Z,76.67
2016-11-28T08:38:36.501Z,76.29
2016-11-28T08:39:48.032Z,76.67
2016-11-28T08:40:59.869Z,76.19
2016-11-28T08:42:12.290Z,76.32
2016-11-28T08:43:23.524Z,76.32
2016-11-28T08:44:35.217Z,75.95
2016-11-28T08:45:47.163Z,75.85
2016-11-28T08:46:58.392Z,75.57
2016-11-28T08:48:10.015Z,75.28
2016-11-28T08:49:21.388Z,75.38
2016-11-28T08:50:32.825Z,74.71
2016-11-28T08:51:44.360Z,74.71
2016-11-28T08:52:58.152Z,74.71
2016-11-28T08:54:12.288Z,74.81
2016-11-28T08:55:26.382Z,74.62
2016-11-28T08:56:40.246Z,74.43
2016-11-28T08:57:54.954Z,73.68
2016-11-28T08:59:09.351Z,72.63
2016-11-28T09:00:24.218Z,73.68
2016-11-28T09:01:38.531Z,73.49
2016-11-28T09:02:53.037Z,73.58
2016-11-28T09:04:07.664Z,73.58
2016-11-28T09:05:21.892Z,73.68
2016-11-28T09:06:36.225Z,73.68
2016-11-28T09:07:50.988Z,73.01
2016-11-28T09:09:04.814Z,72.73
2016-11-28T09:10:19.576Z,72.63
2016-11-28T09:11:33.375Z,72.53
2016-11-28T09:12:47.335Z,71.59
2016-11-28T09:14:01.550Z,69.92
2016-11-28T09:15:15.836Z,68.15
2016-11-28T09:16:29.944Z,68.15
2016-11-28T09:17:43.778Z,68.73
2016-11-28T09:18:58.259Z,69.45
2016-11-28T09:20:13.066Z,69.92
2016-11-28T09:21:27.164Z,69.82
2016-11-28T09:22:42.216Z,69.82
2016-11-28T09:23:57.015Z,70.39
2016-11-28T09:25:25.699Z,69.82
2016-11-28T09:26:40.569Z,69.64
2016-11-28T09:27:55.079Z,69.73
2016-11-28T09:29:09.484Z,69.79
2016-11-28T09:30:23.263Z,69.89
2016-11-28T09:31:37.089Z,69.79
2016-11-28T09:32:50.981Z,69.51
2016-11-28T09:34:05.882Z,69.17
2016-11-28T09:35:20.033Z,69.13
2016-11-28T09:36:34.098Z,68.88
2016-11-28T09:37:50.152Z,68.79
2016-11-28T09:39:04.022Z,68.59
2016-11-28T09:40:18.762Z,69.45
2016-11-28T09:41:32.618Z,69.26
2016-11-28T09:42:46.497Z,69.26
2016-11-28T09:44:00.678Z,68.12
2016-11-28T09:45:15.131Z,68.02
2016-11-28T09:46:29.329Z,68.59
2016-11-28T09:47:43.835Z,68.12
2016-11-28T09:48:58.521Z,68.31
2016-11-28T09:50:13.696Z,68.12
2016-11-28T09:51:28.179Z,68.12
2016-11-28T09:52:43.018Z,68.31
2016-11-28T09:53:57.911Z,68.21
2016-11-28T09:55:12.279Z,68.21
2016-11-28T09:56:26.263Z,67.74
2016-11-28T09:57:40.633Z,67.55
2016-11-28T09:58:55.155Z,67.08
2016-11-28T10:00:09.381Z,67.46
2016-11-28T10:01:23.204Z,67.93
2016-11-28T10:02:37.030Z,68.12
2016-11-28T10:03:50.983Z,67.46
2016-11-28T10:05:06.242Z,66.8
2016-11-28T10:06:20.523Z,66.51
2016-11-28T10:07:35.561Z,66.7
2016-11-28T10:08:50.289Z,66.8
2016-11-28T10:10:04.647Z,66.51
2016-11-28T10:11:19.722Z,66.8
2016-11-28T10:12:33.445Z,66.89
2016-11-28T10:13:47.303Z,66.7
2016-11-28T10:15:00.998Z,66.6
2016-11-28T10:16:15.030Z,66.8
2016-11-28T10:17:29.514Z,66.32
2016-11-28T10:18:43.738Z,67.36
2016-11-28T10:20:12.446Z,67.36
2016-11-28T10:21:26.609Z,66.41
2016-11-28T10:22:40.746Z,66.13
2016-11-28T10:23:54.735Z,66.8
2016-11-28T10:25:24.189Z,67.08
2016-11-28T10:26:38.179Z,66.8
2016-11-28T10:27:52.226Z,66.6
2016-11-28T10:29:05.924Z,66.8
2016-11-28T10:30:19.899Z,66.7
2016-11-28T10:31:34.074Z,66.6
2016-11-28T10:33:04.082Z,65.37
2016-11-28T10:34:18.574Z,64.71
2016-11-28T10:35:32.529Z,64.23
2016-11-28T10:36:46.776Z,63.85
2016-11-28T10:38:00.649Z,63.39
2016-11-28T10:39:14.660Z,63.85
2016-11-28T10:40:29.348Z,64.23
2016-11-28T10:41:43.026Z,64.42
2016-11-28T10:42:56.964Z,64.04
2016-11-28T10:44:11.243Z,63.85
2016-11-28T10:45:25.420Z,64.04
2016-11-28T10:46:40.455Z,64.23
2016-11-28T10:47:54.382Z,64.52
2016-11-28T10:49:08.301Z,65.09
2016-11-28T10:50:22.146Z,64.71
2016-11-28T10:51:36.083Z,63.76
2016-11-28T10:52:50.483Z,64.23
2016-11-28T10:54:04.587Z,64.23
2016-11-28T10:55:20.952Z,64.71
2016-11-28T10:56:35.198Z,64.33
2016-11-28T10:57:48.958Z,64.42
2016-11-28T10:59:03.501Z,63.85
2016-11-28T11:00:17.737Z,64.23
2016-11-28T11:01:32.878Z,63.76
2016-11-28T11:03:05.024Z,63.67
2016-11-28T11:04:19.074Z,62.62
2016-11-28T11:05:33.794Z,62.91
2016-11-28T11:06:48.353Z,62.53
2016-11-28T11:08:02.404Z,62.43
2016-11-28T11:09:16.131Z,62.24
2016-11-28T11:10:29.958Z,62.24
2016-11-28T11:11:44.405Z,62.72
2016-11-28T11:12:58.581Z,62.18
2016-11-28T11:14:13.530Z,61.96
2016-11-28T11:15:27.675Z,62.24
2016-11-28T11:16:42.056Z,62.47
2016-11-28T11:17:56.389Z,62.47
2016-11-28T11:19:10.345Z,61.24
2016-11-28T11:20:24.117Z,61.33
2016-11-28T11:21:38.480Z,61.52
2016-11-28T11:22:52.382Z,62.08
2016-11-28T11:24:06.778Z,61.05
2016-11-28T11:25:20.978Z,61.71
2016-11-28T11:26:35.385Z,61.99
2016-11-28T11:27:49.611Z,61.99
2016-11-28T11:29:03.354Z,61.99
2016-11-28T11:30:18.043Z,61.71
2016-11-28T11:31:32.464Z,62.08
2016-11-28T11:32:46.742Z,61.71
2016-11-28T11:34:00.605Z,61.9
2016-11-28T11:35:14.863Z,61.71
2016-11-28T11:36:44.088Z,61.8
2016-11-28T11:37:58.243Z,61.71
2016-11-28T11:39:11.919Z,61.33
2016-11-28T11:40:25.724Z,61.43
2016-11-28T11:41:39.714Z,61.9
2016-11-28T11:42:53.779Z,60.86
2016-11-28T11:44:07.928Z,61.61
2016-11-28T11:45:21.595Z,61.21
2016-11-28T11:46:50.243Z,61.49
2016-11-28T11:48:04.864Z,61.02
2016-11-28T11:49:19.215Z,61.05
2016-11-28T11:50:33.112Z,60.67
2016-11-28T11:51:47.756Z,60.57
2016-11-28T11:53:01.719Z,60.57
2016-11-28T11:54:16.060Z,60.57
2016-11-28T11:55:30.509Z,60.47
2016-11-28T11:56:44.499Z,60.1
2016-11-28T11:57:58.810Z,57.92
2016-11-28T11:59:13.339Z,57.16
2016-11-28T12:00:27.474Z,57.06
2016-11-28T12:01:41.358Z,56.59
2016-11-28T12:02:55.495Z,56.3
2016-11-28T12:04:09.416Z,56.4
2016-11-28T12:05:23.609Z,55.64
2016-11-28T12:06:38.152Z,54.79
2016-11-28T12:07:52.352Z,54.69
2016-11-28T12:09:21.531Z,54.6
2016-11-28T12:10:35.751Z,54.03
2016-11-28T12:11:50.386Z,54.13
2016-11-28T12:13:06.507Z,53.56
2016-11-28T12:14:20.512Z,53.46
2016-11-28T12:15:34.610Z,54.03
2016-11-28T12:16:48.540Z,53.56
2016-11-28T12:18:02.867Z,52.89
2016-11-28T12:19:17.000Z,52.42
2016-11-28T12:20:31.077Z,51.85
2016-11-28T12:21:45.211Z,51.37
2016-11-28T12:22:59.199Z,51.37
2016-11-28T12:24:13.903Z,51.47
2016-11-28T12:25:28.011Z,51.37
2016-11-28T12:26:42.253Z,51.85
2016-11-28T12:27:55.975Z,51.76
2016-11-28T12:29:10.024Z,51.95
2016-11-28T12:30:24.671Z,51.76
2016-11-28T12:31:43.148Z,51.66
2016-11-28T12:32:57.068Z,51.09
2016-11-28T12:34:10.755Z,51.09
2016-11-28T12:35:24.912Z,51.28
2016-11-28T12:36:39.288Z,50.71
2016-11-28T12:37:53.364Z,50.52
2016-11-28T12:39:07.127Z,50.71
2016-11-28T12:40:21.882Z,50.43
2016-11-28T12:41:35.653Z,50.43
2016-11-28T12:42:49.948Z,50.43
2016-11-28T12:44:03.714Z,50.24
2016-11-28T12:45:18.314Z,50.24
2016-11-28T12:46:32.023Z,50.24
2016-11-28T12:47:46.062Z,50.34
2016-11-28T12:49:00.037Z,50.52
2016-11-28T12:50:13.764Z,50.62
2016-11-28T12:51:28.300Z,50.71
2016-11-28T12:52:42.157Z,50.99
2016-11-28T12:53:56.164Z,51.09
2016-11-28T12:55:10.929Z,51.18
2016-11-28T12:56:24.859Z,51.18
2016-11-28T12:57:39.409Z,50.9
2016-11-28T12:58:53.334Z,51.37
2016-11-28T13:00:08.078Z,51.57
2016-11-28T13:01:22.417Z,51.85
2016-11-28T13:02:36.811Z,51.95
2016-11-28T13:03:51.234Z,51.76
2016-11-28T13:05:21.030Z,51.85
2016-11-28T13:06:36.267Z,51.76
2016-11-28T13:07:50.768Z,51.47
2016-11-28T13:09:04.749Z,51.66
2016-11-28T13:10:18.892Z,51.18
2016-11-28T13:13:17.879Z,50.9
2016-11-28T13:14:32.401Z,50.62
2016-11-28T13:15:46.601Z,50.62
2016-11-28T13:17:01.786Z,50.99
2016-11-28T13:18:16.240Z,50.99
2016-11-28T13:19:30.648Z,50.62
2016-11-28T13:20:44.517Z,50.62
2016-11-28T13:21:58.963Z,50.99
2016-11-28T13:23:13.441Z,50.62
2016-11-28T13:24:42.963Z,50.05
2016-11-28T13:25:57.348Z,49.76
2016-11-28T13:27:12.927Z,49.67
2016-11-28T13:28:27.661Z,49.95
2016-11-28T13:29:41.443Z,49.48
2016-11-28T13:30:57.749Z,49.95
2016-11-28T13:32:12.478Z,49.67
2016-11-28T13:33:26.806Z,49.86
2016-11-28T13:34:40.592Z,49.38
2016-11-28T13:35:54.514Z,49.38
2016-11-28T13:37:08.901Z,48.63
2016-11-28T13:38:22.917Z,48.44
2016-11-28T13:39:37.449Z,48.34
2016-11-28T13:40:51.375Z,48.06
2016-11-28T13:42:07.402Z,48.72
2016-11-28T13:43:21.852Z,49.38
2016-11-28T13:44:35.736Z,49.1
2016-11-28T13:45:49.997Z,47.96
2016-11-28T13:47:04.409Z,47.49
2016-11-28T13:48:18.288Z,47.11
2016-11-28T13:49:32.996Z,47.11
2016-11-28T13:50:47.002Z,47.3
2016-11-28T13:52:05.295Z,47.11
2016-11-28T13:53:34.379Z,47.11
2016-11-28T13:54:48.507Z,47.3
2016-11-28T13:56:02.839Z,47.3
2016-11-28T13:57:17.184Z,46.73
2016-11-28T13:58:31.655Z,47.02
2016-11-28T13:59:45.980Z,47.39
2016-11-28T14:01:00.044Z,46.92
2016-11-28T14:03:43.435Z,47.11
2016-11-28T14:04:57.580Z,47.11
2016-11-28T14:06:11.393Z,47.02
2016-11-28T14:07:25.656Z,47.11
2016-11-28T14:08:39.576Z,47.58
2016-11-28T14:09:53.367Z,47.68
2016-11-28T14:11:07.435Z,47.68
2016-11-28T14:12:21.559Z,47.87
2016-11-28T14:13:35.699Z,47.87
2016-11-28T14:14:50.004Z,47.96
2016-11-28T14:16:03.965Z,47.77
2016-11-28T14:17:18.295Z,47.87
2016-11-28T14:18:32.424Z,47.77
2016-11-28T14:19:46.376Z,47.87
2016-11-28T14:21:00.146Z,48.15
2016-11-28T14:22:14.492Z,47.58
2016-11-28T14:23:28.363Z,48.54
2016-11-28T14:24:42.726Z,47.77
2016-11-28T14:25:57.547Z,48.54
2016-11-28T14:27:11.595Z,48.34
2016-11-28T14:28:26.578Z,48.34
2016-11-28T14:29:44.096Z,48.34
2016-11-28T14:30:57.907Z,48.72
2016-11-28T14:32:12.266Z,48.25
2016-11-28T14:33:28.658Z,48.63
2016-11-28T14:34:42.469Z,49.01
2016-11-28T14:35:56.840Z,49.1
2016-11-28T14:37:10.828Z,48.91
2016-11-28T14:38:25.589Z,49.19
2016-11-28T14:39:40.203Z,49.01
2016-11-28T14:40:54.384Z,49.1
2016-11-28T14:42:08.436Z,49.1
2016-11-28T14:43:23.769Z,49.01
2016-11-28T14:44:39.219Z,49.01
2016-11-28T14:45:53.448Z,48.82
2016-11-28T14:47:08.844Z,48.54
2016-11-28T14:48:25.817Z,48.72
2016-11-28T14:49:40.732Z,48.44
2016-11-28T14:50:56.129Z,48.34
2016-11-28T14:52:10.479Z,47.58
2016-11-28T14:53:25.905Z,47.77
2016-11-28T14:54:41.399Z,47.2
2016-11-28T14:55:57.303Z,47.18
2016-11-28T14:57:13.392Z,47.85
2016-11-28T14:58:29.660Z,47.85
2016-11-28T14:59:43.850Z,48.41
2016-11-28T15:00:59.068Z,48.51
2016-11-28T15:02:15.376Z,48.22
2016-11-28T15:03:30.319Z,48.32
2016-11-28T15:04:45.376Z,48.51
2016-11-28T15:06:15.949Z,48.98
2016-11-28T15:07:30.963Z,48.98
2016-11-28T15:08:46.144Z,49.27
2016-11-28T15:10:00.304Z,49.84
2016-11-28T15:11:14.209Z,49.84
2016-11-28T15:12:28.313Z,50.02
2016-11-28T15:13:42.271Z,49.93
2016-11-28T15:14:57.088Z,50.21
2016-11-28T15:16:12.025Z,50.59
2016-11-28T15:17:26.256Z,50.69
2016-11-28T15:18:54.826Z,50.88
2016-11-28T15:20:08.844Z,50.69
2016-11-28T15:21:22.992Z,50.49
2016-11-28T15:22:37.192Z,50.69
2016-11-28T15:23:51.415Z,50.59
2016-11-28T15:25:05.701Z,50.59
2016-11-28T15:26:20.167Z,50.69
2016-11-28T15:27:34.562Z,50.69
2016-11-28T15:28:48.303Z,50.97
2016-11-28T15:30:02.428Z,50.88
2016-11-28T15:31:16.512Z,51.07
2016-11-28T15:32:30.887Z,50.69
2016-11-28T15:33:44.771Z,50.97
2016-11-28T15:34:58.510Z,51.64
2016-11-28T15:36:12.560Z,51.16
2016-11-28T15:37:26.922Z,50.97
2016-11-28T15:38:41.147Z,51.26
2016-11-28T15:39:55.090Z,51.26
2016-11-28T15:41:08.986Z,50.97
2016-11-28T15:42:23.069Z,51.26
2016-11-28T15:43:37.129Z,51.26
2016-11-28T15:44:51.249Z,51.42
2016-11-28T15:46:05.745Z,51.61
2016-11-28T15:47:19.550Z,51.61
2016-11-28T15:48:33.583Z,52.46
2016-11-28T15:49:47.869Z,52.46
2016-11-28T15:51:02.575Z,52.84
2016-11-28T15:52:17.303Z,52.94
2016-11-28T15:53:31.335Z,53.41
2016-11-28T15:54:45.155Z,53.59
2016-11-28T15:55:58.906Z,53.69
2016-11-28T15:57:27.929Z,53.41
2016-11-28T15:58:41.951Z,53.88
2016-11-28T15:59:56.298Z,53.88
2016-11-28T16:01:10.349Z,53.59
2016-11-28T16:02:24.967Z,53.13
2016-11-28T16:03:39.012Z,53.22
2016-11-28T16:04:52.941Z,53.97
2016-11-28T16:07:38.610Z,53.97
2016-11-28T16:08:52.793Z,53.97